Time;durP1;ratioP1;P1;durP2;ratioP2;P2;SDS_P1;SDS_P2;PMS_P1;PMS_P2;Temp;Humidity;BMP_temperature;BMP_pressure;BME280_temperature;BME280_humidity;BME280_pressure;Samples;Min_cycle;Max_cycle;Signal;HPM_P1;HPM_P2
2022/03/23 00:01:27;;;;;;;30.10;15.10;;;;;;;-0.57;71.13;100030.13;4187709;28;20040;-70
2022/03/23 00:03:27;;;;;;;24.38;14.20;;;;;;;-0.59;70.76;100034.19;4187391;28;20123;-71
2022/03/23 00:05:28;;;;;;;25.73;14.02;;;;;;;-0.65;70.56;100027.09;4191006;28;20040;-71
2022/03/23 00:07:28;;;;;;;23.80;13.30;;;;;;;-0.66;70.18;100028.19;4187694;28;20468;-71
2022/03/23 00:09:29;;;;;;;25.83;13.75;;;;;;;-0.66;70.30;100034.44;4187805;28;20388;-71
2022/03/23 00:11:29;;;;;;;22.33;12.80;;;;;;;-0.71;70.40;100028.16;4186526;28;20028;-71
2022/03/23 00:13:30;;;;;;;21.27;13.15;;;;;;;-0.75;70.91;100035.19;4188603;28;20036;-71
2022/03/23 00:15:31;;;;;;;27.00;14.27;;;;;;;-0.81;70.95;100031.66;4187215;28;20443;-71
2022/03/23 00:17:31;;;;;;;23.13;13.10;;;;;;;-0.76;71.34;100030.84;4186605;28;20040;-71
2022/03/23 00:19:32;;;;;;;21.02;12.80;;;;;;;-0.78;71.61;100030.31;4188483;28;20476;-71
2022/03/23 00:21:33;;;;;;;25.98;13.13;;;;;;;-0.83;71.99;100033.00;4190452;28;20044;-71
2022/03/23 00:23:33;;;;;;;21.05;12.45;;;;;;;-0.86;71.55;100032.44;4188237;28;20127;-71
2022/03/23 00:25:36;;;;;;;29.08;13.02;;;;;;;-0.87;70.41;100027.28;4187721;28;20083;-71
2022/03/23 00:27:36;;;;;;;22.90;13.23;;;;;;;-0.90;71.69;100033.25;4188146;28;20044;-71
2022/03/23 00:29:36;;;;;;;24.50;12.75;;;;;;;-0.93;73.00;100031.06;4186057;28;20036;-71
2022/03/23 00:31:37;;;;;;;23.73;13.48;;;;;;;-1.02;74.58;100032.63;4187949;28;20119;-71
2022/03/23 00:33:37;;;;;;;23.38;12.27;;;;;;;-1.06;74.63;100043.22;4188156;28;20059;-71
2022/03/23 00:35:38;;;;;;;24.42;13.25;;;;;;;-1.18;75.52;100029.84;4188876;28;20045;-71
2022/03/23 00:37:38;;;;;;;26.08;13.55;;;;;;;-1.24;75.40;100032.78;4191591;28;20499;-71
2022/03/23 00:39:38;;;;;;;21.42;12.18;;;;;;;-1.31;74.76;100035.75;4187246;28;20043;-71
2022/03/23 00:41:39;;;;;;;21.58;12.65;;;;;;;-1.37;75.02;100041.41;4186012;28;20051;-71
2022/03/23 00:43:40;;;;;;;20.75;12.02;;;;;;;-1.43;75.41;100037.81;4190367;28;20063;-70
2022/03/23 00:45:40;;;;;;;24.60;13.40;;;;;;;-1.45;75.02;100032.66;4189944;28;20369;-70
2022/03/23 00:47:41;;;;;;;22.13;12.15;;;;;;;-1.39;74.66;100032.72;4191572;28;20128;-70
2022/03/23 00:49:41;;;;;;;22.67;12.25;;;;;;;-1.33;73.57;100031.63;4190761;28;20450;-71
2022/03/23 00:51:42;;;;;;;23.15;11.98;;;;;;;-1.34;72.91;100019.97;4190470;28;20037;-70
2022/03/23 00:53:42;;;;;;;23.17;12.38;;;;;;;-1.31;73.61;100034.94;4190368;28;20795;-71
2022/03/23 00:55:43;;;;;;;22.45;12.38;;;;;;;-1.34;73.37;100028.09;4189168;28;20101;-70
2022/03/23 00:57:44;;;;;;;27.83;13.90;;;;;;;-1.33;73.88;100024.31;4191248;28;20473;-70
2022/03/23 00:59:44;;;;;;;23.70;12.88;;;;;;;-1.35;73.54;100031.09;4190552;28;20133;-70
2022/03/23 01:01:45;;;;;;;24.25;13.00;;;;;;;-1.33;72.60;100024.31;4196612;28;20409;-70
2022/03/23 01:03:45;;;;;;;21.23;12.30;;;;;;;-1.25;72.67;100025.72;4191167;28;20656;-71
2022/03/23 01:05:46;;;;;;;24.17;13.35;;;;;;;-1.20;71.75;100029.28;4191122;28;20028;-71
2022/03/23 01:07:46;;;;;;;18.95;11.68;;;;;;;-1.11;71.48;100017.91;4194238;28;20040;-70
2022/03/23 01:09:47;;;;;;;22.08;12.80;;;;;;;-1.19;72.40;100021.97;4190416;28;20382;-71
2022/03/23 01:11:47;;;;;;;24.63;12.80;;;;;;;-1.27;72.25;100023.25;4194493;28;20127;-71
2022/03/23 01:13:48;;;;;;;20.42;12.48;;;;;;;-1.34;72.90;100025.38;4196492;28;20109;-71
2022/03/23 01:15:48;;;;;;;21.52;12.55;;;;;;;-1.43;73.45;100019.63;4197142;28;20040;-71
2022/03/23 01:17:49;;;;;;;23.80;13.27;;;;;;;-1.47;73.01;100015.00;4192599;28;20547;-71
2022/03/23 01:19:50;;;;;;;26.27;13.18;;;;;;;-1.51;73.70;100014.69;4197435;28;20043;-71
2022/03/23 01:21:52;;;;;;;22.52;12.63;;;;;;;-1.58;74.05;100010.56;4198152;28;20044;-71
2022/03/23 01:23:52;;;;;;;22.52;12.93;;;;;;;-1.65;74.31;100021.66;4199689;28;20132;-70
2022/03/23 01:25:53;;;;;;;26.38;13.60;;;;;;;-1.71;74.13;100017.28;4194232;28;20125;-71
2022/03/23 01:27:53;;;;;;;23.02;12.05;;;;;;;-1.76;75.37;100018.03;4192227;28;20502;-70
2022/03/23 01:29:53;;;;;;;25.10;12.95;;;;;;;-1.79;75.67;100024.00;4195860;28;20119;-70
2022/03/23 01:31:54;;;;;;;25.52;13.35;;;;;;;-1.83;76.24;100012.00;4196959;28;20135;-71
2022/03/23 01:33:59;;;;;;;22.30;12.20;;;;;;;-1.88;76.81;100012.00;4196045;28;20155;-71
2022/03/23 01:35:59;;;;;;;23.08;12.75;;;;;;;-1.92;77.18;100012.75;4195012;28;20057;-71
2022/03/23 01:38:00;;;;;;;20.92;11.75;;;;;;;-1.94;76.69;100004.88;4193576;28;20049;-71
2022/03/23 01:40:01;;;;;;;20.65;11.57;;;;;;;-1.98;77.14;100007.31;4196575;28;20693;-71
2022/03/23 01:42:02;;;;;;;20.63;12.38;;;;;;;-2.02;77.75;100011.59;4192301;28;20052;-71
2022/03/23 01:44:11;;;;;;;16.73;11.15;;;;;;;-2.06;78.01;100006.97;4196261;28;20293;-71
2022/03/23 01:46:16;;;;;;;20.42;11.07;;;;;;;-2.12;78.87;100014.22;4195628;28;20427;-71
2022/03/23 01:48:16;;;;;;;19.13;10.60;;;;;;;-2.13;79.21;100009.06;4195339;28;20368;-71
2022/03/23 01:50:16;;;;;;;18.92;11.15;;;;;;;-2.17;79.37;100005.22;4194027;28;20376;-71
2022/03/23 01:52:20;;;;;;;17.55;10.77;;;;;;;-2.16;80.08;99998.72;4192065;28;20235;-71
2022/03/23 01:54:20;;;;;;;20.10;11.25;;;;;;;-2.21;80.37;100015.75;4195723;28;20414;-71
2022/03/23 01:56:22;;;;;;;21.10;11.70;;;;;;;-2.31;79.93;100008.34;4195928;28;20226;-71
2022/03/23 01:58:23;;;;;;;24.60;11.10;;;;;;;-2.36;79.80;100005.59;4195928;28;20529;-71
2022/03/23 02:00:24;;;;;;;21.95;11.77;;;;;;;-2.48;80.63;100004.94;4195411;28;20501;-71
2022/03/23 02:02:24;;;;;;;25.02;11.55;;;;;;;-2.54;80.68;100000.53;4197944;28;20055;-71
2022/03/23 02:04:24;;;;;;;20.33;12.20;;;;;;;-2.42;79.71;100013.91;4195683;28;20045;-71
2022/03/23 02:06:25;;;;;;;21.38;11.77;;;;;;;-2.35;77.25;100007.22;4190321;28;20288;-71
2022/03/23 02:08:25;;;;;;;24.95;13.13;;;;;;;-2.26;77.05;100010.28;4201021;28;20048;-71
2022/03/23 02:10:28;;;;;;;22.13;11.60;;;;;;;-2.27;76.23;100005.94;4190615;28;20045;-71
2022/03/23 02:12:30;;;;;;;22.77;12.13;;;;;;;-2.32;77.09;99997.75;4187052;28;20055;-71
2022/03/23 02:14:30;;;;;;;27.55;12.40;;;;;;;-2.42;78.29;100006.59;4198646;28;20427;-71
2022/03/23 02:16:47;;;;;;;29.48;12.30;;;;;;;-2.45;77.60;99993.56;4195688;28;20087;-71
2022/03/23 02:18:47;;;;;;;21.58;11.48;;;;;;;-2.39;77.74;99997.97;4196488;28;20047;-71
2022/03/23 02:20:48;;;;;;;21.77;12.38;;;;;;;-2.43;77.14;99994.13;4192804;28;20044;-71
2022/03/23 02:22:48;;;;;;;24.95;12.90;;;;;;;-2.43;77.34;99999.53;4197254;28;20123;-71
2022/03/23 02:24:50;;;;;;;24.58;13.13;;;;;;;-2.49;76.91;99989.72;4193292;28;20075;-71
2022/03/23 02:26:51;;;;;;;26.08;12.35;;;;;;;-2.54;78.06;99995.09;4196722;28;20051;-71
2022/03/23 02:28:53;;;;;;;21.40;11.25;;;;;;;-2.59;79.13;99990.44;4192689;28;20167;-71
2022/03/23 02:30:54;;;;;;;24.13;12.15;;;;;;;-2.62;78.27;99985.53;4196953;28;20089;-71
2022/03/23 02:32:54;;;;;;;23.70;11.68;;;;;;;-2.53;76.67;99995.91;4197312;28;20484;-71
2022/03/23 02:34:54;;;;;;;20.13;12.38;;;;;;;-2.55;76.64;99993.47;4192652;28;20400;-71
2022/03/23 02:36:55;;;;;;;22.13;12.27;;;;;;;-2.60;77.66;99996.94;4191710;28;20075;-71
2022/03/23 02:38:56;;;;;;;22.67;12.50;;;;;;;-2.67;78.03;99985.47;4195954;28;20056;-71
2022/03/23 02:40:56;;;;;;;19.80;12.05;;;;;;;-2.72;78.87;99998.97;4195389;28;20053;-71
2022/03/23 02:42:56;;;;;;;22.58;12.50;;;;;;;-2.78;79.14;99993.75;4196172;28;20508;-71
2022/03/23 02:44:57;;;;;;;28.08;12.05;;;;;;;-2.87;79.58;99994.19;4201889;28;20071;-72
2022/03/23 02:46:57;;;;;;;22.20;12.35;;;;;;;-2.90;80.05;99989.25;4195730;28;20117;-71
2022/03/23 02:48:57;;;;;;;19.92;11.35;;;;;;;-2.92;79.96;99994.13;4192437;28;20105;-71
2022/03/23 02:50:58;;;;;;;19.40;11.40;;;;;;;-2.92;80.49;99993.31;4193073;28;20528;-71
2022/03/23 03:02:48;;;;;;;22.17;11.25;;;;;;;-3.13;80.60;99995.78;4191066;28;20128;-71
2022/03/23 03:04:49;;;;;;;21.55;11.65;;;;;;;-3.15;80.64;99997.06;4198252;28;20449;-71
2022/03/23 03:06:50;;;;;;;23.50;11.38;;;;;;;-3.17;80.68;99991.91;4194600;28;20476;-71
2022/03/23 03:08:51;;;;;;;26.55;12.82;;;;;;;-3.20;80.56;99997.03;4190933;28;20036;-71
2022/03/23 03:10:51;;;;;;;26.15;14.40;;;;;;;-3.20;80.99;99988.91;4192436;28;20058;-71
2022/03/23 03:12:53;;;;;;;21.30;12.13;;;;;;;-3.24;80.18;99999.41;4194326;28;20734;-71
2022/03/23 03:14:54;;;;;;;23.02;12.35;;;;;;;-3.25;80.99;100003.19;4191505;28;20047;-71
2022/03/23 03:16:54;;;;;;;22.67;12.35;;;;;;;-3.24;80.23;99998.59;4191561;28;20041;-71
2022/03/23 03:18:54;;;;;;;22.27;12.52;;;;;;;-3.23;80.17;100005.63;4195751;28;20391;-71
2022/03/23 03:20:55;;;;;;;26.42;12.70;;;;;;;-3.27;80.00;99999.91;4196544;28;20040;-71
2022/03/23 03:22:55;;;;;;;23.95;12.73;;;;;;;-3.25;79.18;99997.75;4192293;28;20388;-71
2022/03/23 03:24:56;;;;;;;23.85;12.88;;;;;;;-3.26;79.42;100006.13;4192626;28;20037;-71
2022/03/23 03:26:57;;;;;;;21.65;12.52;;;;;;;-3.25;78.13;100005.88;4194767;28;20946;-71
2022/03/23 03:28:57;;;;;;;24.55;12.05;;;;;;;-3.26;79.18;100008.84;4195691;28;20058;-71
2022/03/23 03:30:58;;;;;;;22.80;12.48;;;;;;;-3.28;79.55;100002.88;4191667;28;20526;-71
2022/03/23 03:32:58;;;;;;;20.73;12.15;;;;;;;-3.26;79.53;100000.72;4194418;28;20045;-71
2022/03/23 03:34:58;;;;;;;24.02;13.43;;;;;;;-3.24;77.55;100012.94;4192164;28;20036;-71
2022/03/23 03:36:59;;;;;;;23.50;12.13;;;;;;;-3.30;78.11;100008.53;4190062;28;20306;-71
2022/03/23 03:38:59;;;;;;;21.70;12.68;;;;;;;-3.38;78.90;100006.25;4195647;28;20082;-71
2022/03/23 03:41:01;;;;;;;24.25;11.68;;;;;;;-3.45;80.29;100006.44;4196328;28;20048;-71
2022/03/23 03:43:02;;;;;;;21.88;11.38;;;;;;;-3.48;80.38;100012.31;4195193;28;20139;-71
2022/03/23 03:45:05;;;;;;;20.05;10.57;;;;;;;-3.49;80.33;100020.69;4191365;28;20068;-71
2022/03/23 03:47:05;;;;;;;18.73;12.15;;;;;;;-3.53;80.58;100017.69;4195426;28;20123;-71
2022/03/23 03:49:06;;;;;;;21.60;12.10;;;;;;;-3.56;80.88;100015.44;4195693;28;20071;-71
2022/03/23 03:51:08;;;;;;;20.85;11.52;;;;;;;-3.60;82.29;100016.22;4188981;28;20060;-71
2022/03/23 03:53:09;;;;;;;21.47;11.63;;;;;;;-3.61;82.47;100009.97;4194400;28;20379;-71
2022/03/23 03:55:09;;;;;;;25.50;11.65;;;;;;;-3.67;82.90;100014.47;4195103;28;20271;-71
2022/03/23 03:57:10;;;;;;;20.33;10.90;;;;;;;-3.70;82.85;100009.59;4194679;28;20079;-71
2022/03/23 03:59:10;;;;;;;25.25;12.02;;;;;;;-3.74;83.27;100013.00;4190531;28;20143;-71
2022/03/23 04:01:14;;;;;;;21.40;11.57;;;;;;;-3.79;83.18;99999.44;4191057;28;20510;-71
2022/03/23 04:03:14;;;;;;;21.75;11.43;;;;;;;-3.79;83.06;100011.06;4190196;28;20049;-71
2022/03/23 04:05:14;;;;;;;33.15;12.60;;;;;;;-3.76;83.34;100010.56;4197311;28;20507;-71
2022/03/23 04:07:15;;;;;;;20.55;11.10;;;;;;;-3.76;83.16;100007.03;4191299;28;20396;-71
2022/03/23 04:09:15;;;;;;;22.63;11.40;;;;;;;-3.81;83.08;100007.75;4195244;28;20044;-71
2022/03/23 04:11:16;;;;;;;21.65;13.00;;;;;;;-3.83;83.87;100007.19;4188175;28;20415;-71
2022/03/23 04:13:17;;;;;;;20.85;11.15;;;;;;;-3.86;84.65;100002.28;4192595;28;20094;-71
2022/03/23 04:15:21;;;;;;;23.95;12.63;;;;;;;-3.85;83.98;100000.41;4193476;28;20036;-71
2022/03/23 04:17:22;;;;;;;21.88;11.13;;;;;;;-3.83;84.00;100003.69;4184919;28;20052;-71
2022/03/23 04:19:22;;;;;;;20.50;11.02;;;;;;;-3.82;83.24;100005.31;4194163;28;20683;-71
2022/03/23 04:21:22;;;;;;;22.13;11.40;;;;;;;-3.84;82.70;100005.56;4191900;28;20044;-71
2022/03/23 04:23:23;;;;;;;29.95;13.02;;;;;;;-3.85;82.71;100000.41;4190452;28;20052;-71
2022/03/23 04:25:23;;;;;;;24.83;12.75;;;;;;;-3.88;82.84;100006.31;4192383;28;20049;-71
2022/03/23 04:27:23;;;;;;;23.20;13.23;;;;;;;-3.85;82.78;100000.41;4189865;28;20052;-71
2022/03/23 04:29:24;;;;;;;24.15;13.48;;;;;;;-3.75;82.39;100009.50;4193507;28;20479;-71
2022/03/23 04:31:25;;;;;;;23.83;11.68;;;;;;;-3.76;80.78;100001.63;4194595;28;20040;-71
2022/03/23 04:33:25;;;;;;;26.50;13.38;;;;;;;-3.77;81.17;100005.41;4193777;28;20130;-71
2022/03/23 04:35:26;;;;;;;24.08;12.43;;;;;;;-3.70;80.42;100006.88;4195648;28;20037;-71
2022/03/23 04:37:26;;;;;;;23.90;12.18;;;;;;;-3.72;80.54;100008.19;4193345;28;20055;-71
2022/03/23 04:39:27;;;;;;;23.35;12.68;;;;;;;-3.74;80.35;100010.31;4192203;28;20086;-71
2022/03/23 04:41:27;;;;;;;22.42;12.40;;;;;;;-3.74;80.64;100005.72;4192598;28;20589;-71
2022/03/23 04:43:27;;;;;;;24.38;12.85;;;;;;;-3.74;80.37;100011.13;4192255;28;20600;-71
2022/03/23 04:45:28;;;;;;;21.02;11.88;;;;;;;-3.76;79.88;100007.84;4187538;28;20050;-71
2022/03/23 04:47:28;;;;;;;23.55;12.23;;;;;;;-3.81;81.10;100013.19;4188600;28;20273;-71
2022/03/23 04:49:29;;;;;;;25.98;12.15;;;;;;;-3.83;80.45;100011.78;4192284;28;20069;-71
2022/03/23 04:51:30;;;;;;;20.92;12.10;;;;;;;-3.84;80.09;100019.09;4195103;28;20055;-71
2022/03/23 04:53:31;;;;;;;28.65;13.23;;;;;;;-3.90;80.06;100019.25;4193302;28;20041;-71
2022/03/23 04:55:31;;;;;;;26.05;12.98;;;;;;;-3.98;81.01;100021.28;4193063;28;20457;-71
2022/03/23 04:57:32;;;;;;;26.13;12.70;;;;;;;-3.98;81.64;100021.28;4194409;28;20044;-71
2022/03/23 04:59:32;;;;;;;24.73;13.38;;;;;;;-3.96;81.47;100007.53;4196262;28;20422;-71
2022/03/23 05:01:33;;;;;;;24.65;11.73;;;;;;;-3.98;81.61;100013.19;4193860;28;20138;-71
2022/03/23 05:03:34;;;;;;;23.30;12.93;;;;;;;-3.97;82.09;100012.13;4192972;28;20040;-71
2022/03/23 05:05:34;;;;;;;23.83;12.90;;;;;;;-4.00;82.04;100026.13;4194215;28;20040;-71
2022/03/23 05:07:35;;;;;;;24.08;13.10;;;;;;;-4.03;82.54;100018.50;4191143;28;20040;-71
2022/03/23 05:09:35;;;;;;;23.40;12.70;;;;;;;-4.04;81.84;100016.88;4193794;28;20051;-71
2022/03/23 05:11:36;;;;;;;21.98;12.00;;;;;;;-4.05;83.12;100022.53;4193645;28;20488;-71
2022/03/23 05:13:36;;;;;;;25.55;12.85;;;;;;;-4.07;84.78;100024.66;4189226;28;20406;-71
2022/03/23 05:15:38;;;;;;;26.60;12.60;;;;;;;-4.15;84.91;100022.34;4188070;28;20441;-71
2022/03/23 05:17:39;;;;;;;20.20;12.25;;;;;;;-4.25;84.50;100012.19;4190884;28;20055;-71
2022/03/23 05:19:39;;;;;;;24.55;12.35;;;;;;;-4.31;84.24;100016.66;4188493;28;20476;-71
2022/03/23 05:21:39;;;;;;;23.67;11.90;;;;;;;-4.34;85.14;100019.88;4196668;28;20402;-71
2022/03/23 05:23:40;;;;;;;26.67;12.45;;;;;;;-4.32;84.46;100025.03;4194362;28;20373;-71
2022/03/23 05:25:40;;;;;;;24.35;12.68;;;;;;;-4.30;83.29;100025.63;4191858;28;20083;-71
2022/03/23 05:27:42;;;;;;;26.20;13.52;;;;;;;-4.28;83.47;100028.88;4194104;28;20067;-71
2022/03/23 05:29:43;;;;;;;19.88;12.52;;;;;;;-4.31;83.60;100023.94;4192778;28;20480;-71
2022/03/23 05:31:43;;;;;;;20.10;11.20;;;;;;;-4.30;84.76;100021.03;4193778;28;20055;-71
2022/03/23 05:33:44;;;;;;;22.83;11.48;;;;;;;-4.35;85.00;100022.81;4192350;28;20048;-71
2022/03/23 05:35:44;;;;;;;20.58;11.43;;;;;;;-4.39;85.09;100022.47;4193312;28;20059;-71
2022/03/23 05:37:45;;;;;;;21.60;11.65;;;;;;;-4.36;84.56;100023.88;4193714;28;20076;-71
2022/03/23 05:39:46;;;;;;;22.67;11.88;;;;;;;-4.17;82.98;100025.28;4196348;28;20071;-71
2022/03/23 05:41:46;;;;;;;29.38;12.43;;;;;;;-4.08;82.37;100029.22;4194488;28;20098;-71
2022/03/23 05:43:47;;;;;;;34.40;18.02;;;;;;;-4.03;81.78;100023.09;4197205;28;20044;-71
2022/03/23 05:45:47;;;;;;;38.30;18.88;;;;;;;-4.03;81.74;100026.63;4195514;28;20133;-71
2022/03/23 05:47:49;;;;;;;36.58;19.77;;;;;;;-4.05;81.88;100028.75;4191514;28;20047;-71
2022/03/23 05:49:50;;;;;;;28.58;15.23;;;;;;;-4.09;82.83;100019.50;4192669;28;20074;-71
2022/03/23 05:51:50;;;;;;;23.33;14.57;;;;;;;-4.05;82.72;100030.66;4193032;28;20131;-71
2022/03/23 05:53:51;;;;;;;25.98;14.38;;;;;;;-3.98;82.31;100025.88;4193864;28;20793;-71
2022/03/23 05:55:51;;;;;;;25.20;14.75;;;;;;;-4.00;81.92;100034.25;4105091;28;20320;-71
2022/03/23 05:57:51;;;;;;;24.63;14.07;;;;;;;-4.04;82.25;100035.00;4198868;28;20044;-71
2022/03/23 05:59:52;;;;;;;24.77;14.50;;;;;;;-4.07;83.04;100027.34;4193278;28;20067;-71
2022/03/23 06:01:52;;;;;;;27.58;14.77;;;;;;;-4.07;83.72;100027.34;4196274;28;20036;-71
2022/03/23 06:03:52;;;;;;;24.20;13.40;;;;;;;-3.97;82.58;100033.78;4196011;28;20040;-71
2022/03/23 06:05:53;;;;;;;27.23;14.63;;;;;;;-3.91;82.20;100033.84;4193299;28;20055;-71
2022/03/23 06:07:53;;;;;;;26.27;13.52;;;;;;;-3.91;82.82;100029.25;4198257;28;20518;-71
2022/03/23 06:09:53;;;;;;;24.42;13.75;;;;;;;-3.85;82.88;100030.16;4191212;28;20202;-71
2022/03/23 06:11:53;;;;;;;22.60;12.35;;;;;;;-3.77;82.59;100035.97;4192983;28;20418;-71
2022/03/23 06:13:54;;;;;;;25.08;12.63;;;;;;;-3.67;82.53;100041.53;4196474;28;20055;-71
2022/03/23 06:15:55;;;;;;;33.65;16.08;;;;;;;-3.58;81.57;100035.72;4193899;28;20052;-71
2022/03/23 06:17:55;;;;;;;23.70;12.05;;;;;;;-3.51;81.25;100037.19;4192089;28;20535;-71
2022/03/23 06:19:55;;;;;;;21.90;12.35;;;;;;;-3.50;81.78;100036.13;4194032;28;20127;-71
2022/03/23 06:21:55;;;;;;;19.73;11.00;;;;;;;-3.40;83.75;100036.25;4197275;28;20409;-71
2022/03/23 06:23:56;;;;;;;24.05;11.77;;;;;;;-3.34;84.74;100044.47;4188821;28;20036;-71
2022/03/23 06:25:56;;;;;;;20.52;11.73;;;;;;;-3.32;84.25;100037.72;4198133;28;20052;-71
2022/03/23 06:27:57;;;;;;;26.02;12.20;;;;;;;-3.26;83.51;100035.91;4193958;28;20366;-71
2022/03/23 06:29:57;;;;;;;26.17;13.80;;;;;;;-3.20;82.41;100041.16;4193766;28;20029;-71
2022/03/23 06:31:57;;;;;;;25.08;13.32;;;;;;;-3.13;81.53;100046.41;4196654;28;20051;-71
2022/03/23 06:33:59;;;;;;;22.80;12.77;;;;;;;-3.07;81.44;100045.38;4193224;28;20055;-71
2022/03/23 06:35:59;;;;;;;29.33;12.15;;;;;;;-3.04;81.42;100041.38;4196717;28;20652;-71
2022/03/23 06:38:00;;;;;;;26.27;13.35;;;;;;;-2.96;80.95;100054.47;4192459;28;20086;-71
2022/03/23 06:40:01;;;;;;;24.15;13.25;;;;;;;-2.91;82.41;100054.53;4195942;28;20502;-71
2022/03/23 06:42:02;;;;;;;22.02;12.13;;;;;;;-2.84;82.52;100050.56;4193969;28;20067;-71
2022/03/23 06:44:02;;;;;;;21.42;12.27;;;;;;;-2.76;82.01;100053.91;4194206;28;20028;-72
2022/03/23 06:46:03;;;;;;;29.52;14.18;;;;;;;-2.69;83.09;100062.66;4196861;28;20318;-71
2022/03/23 06:48:03;;;;;;;20.80;12.77;;;;;;;-2.61;81.60;100059.50;4198158;28;20433;-71
2022/03/23 06:50:05;;;;;;;22.85;13.38;;;;;;;-2.55;81.38;100056.63;4197727;28;20055;-72
2022/03/23 06:52:05;;;;;;;21.73;12.18;;;;;;;-2.43;79.55;100067.31;4193126;28;20119;-71
2022/03/23 06:54:06;;;;;;;23.67;12.32;;;;;;;-2.35;79.09;100069.56;4196692;28;20066;-71
2022/03/23 06:56:06;;;;;;;24.13;12.98;;;;;;;-2.24;80.72;100064.25;4191362;28;20434;-71
2022/03/23 06:58:06;;;;;;;23.25;12.50;;;;;;;-2.16;80.51;100061.06;4189632;28;20024;-71
2022/03/23 07:00:13;;;;;;;19.92;12.45;;;;;;;-2.10;80.47;100060.06;4198553;28;20032;-71
2022/03/23 07:02:13;;;;;;;25.80;12.48;;;;;;;-2.00;81.63;100076.44;4197422;28;20028;-71
2022/03/23 07:04:14;;;;;;;28.27;12.65;;;;;;;-1.93;81.08;100065.38;4196309;28;20339;-71
2022/03/23 07:06:16;;;;;;;26.20;12.55;;;;;;;-1.86;78.87;100065.97;4193137;28;20033;-71
2022/03/23 07:10:36;;;;;;;27.40;14.02;;;;;;;-1.68;79.93;100073.75;4196864;28;20047;-71
2022/03/23 07:12:37;;;;;;;21.02;13.20;;;;;;;-1.63;81.43;100068.38;4195907;28;20060;-71
2022/03/23 07:14:39;;;;;;;29.15;14.70;;;;;;;-1.52;82.55;100066.53;4194778;28;20113;-71
2022/03/23 07:16:41;;;;;;;;;;;;;;;-1.43;82.74;100070.41;4187885;28;20075;-71
2022/03/23 07:18:41;;;;;;;22.92;12.27;;;;;;;-1.35;82.88;100077.25;4198074;28;20144;-71
2022/03/23 07:20:42;;;;;;;27.23;13.40;;;;;;;-1.28;82.81;100070.50;4196871;28;20082;-71
2022/03/23 07:22:43;;;;;;;28.98;14.20;;;;;;;-1.19;82.61;100070.84;4191435;28;20364;-71
2022/03/23 07:24:45;;;;;;;25.13;12.70;;;;;;;-1.09;81.82;100070.09;4195002;28;20094;-71
2022/03/23 07:26:45;;;;;;;28.00;12.77;;;;;;;-1.04;80.32;100072.84;4193840;28;20033;-71
2022/03/23 07:28:46;;;;;;;23.90;13.25;;;;;;;-0.96;79.19;100067.72;4189719;28;20051;-71
2022/03/23 07:30:46;;;;;;;26.20;13.52;;;;;;;-0.88;79.32;100080.00;4191093;28;20185;-71
2022/03/23 07:32:46;;;;;;;22.30;13.10;;;;;;;-0.82;79.95;100078.94;4192866;28;20348;-71
2022/03/23 07:34:47;;;;;;;25.70;14.35;;;;;;;-0.73;80.29;100077.34;4194294;28;20048;-71
2022/03/23 07:36:50;;;;;;;32.45;15.48;;;;;;;-0.63;81.09;100082.84;4195582;28;20445;-71
2022/03/23 07:38:52;;;;;;;30.67;14.77;;;;;;;-0.54;81.29;100077.72;4192037;28;20412;-71
2022/03/23 07:40:52;;;;;;;25.73;14.07;;;;;;;-0.48;80.59;100071.22;4200670;28;20093;-71
2022/03/23 07:42:52;;;;;;;23.42;13.98;;;;;;;-0.39;79.02;100075.03;4195540;28;20044;-71
2022/03/23 07:44:52;;;;;;;25.30;13.98;;;;;;;-0.27;79.71;100069.34;4188642;28;20289;-71
2022/03/23 07:46:53;;;;;;;25.40;13.88;;;;;;;-0.10;79.54;100080.00;4193786;28;20049;-71
2022/03/23 07:48:53;;;;;;;24.00;12.90;;;;;;;0.02;79.12;100068.91;4186658;28;20569;-71
2022/03/23 07:50:54;;;;;;;27.23;13.30;;;;;;;0.19;79.37;100078.44;4193169;28;20048;-71
2022/03/23 07:52:55;;;;;;;23.67;12.02;;;;;;;0.37;79.74;100068.91;4194416;28;20051;-71
2022/03/23 07:54:55;;;;;;;28.30;12.38;;;;;;;0.48;78.46;100067.00;4195631;28;20032;-71
2022/03/23 07:56:55;;;;;;;27.50;13.18;;;;;;;0.59;77.13;100062.38;4193520;28;20056;-71
2022/03/23 07:58:56;;;;;;;27.55;13.07;;;;;;;0.69;76.73;100067.81;4191552;28;20304;-71
2022/03/23 08:00:56;;;;;;;23.63;11.75;;;;;;;0.83;78.10;100075.16;4190610;28;20135;-71
2022/03/23 08:02:57;;;;;;;22.60;11.73;;;;;;;1.13;78.33;100073.44;4192478;28;20046;-71
2022/03/23 08:04:59;;;;;;;17.95;10.40;;;;;;;1.34;76.95;100069.56;4195534;28;20068;-71
2022/03/23 08:07:01;;;;;;;23.80;12.15;;;;;;;1.50;76.55;100081.25;4196606;28;20075;-71
2022/03/23 08:09:03;;;;;;;22.17;13.05;;;;;;;1.64;75.69;100076.78;4188221;28;20037;-71
2022/03/23 08:11:03;;;;;;;25.63;12.77;;;;;;;1.73;75.43;100071.56;4193989;28;20218;-71
2022/03/23 08:13:03;;;;;;;25.67;13.35;;;;;;;1.83;76.37;100073.44;4195606;28;20145;-71
2022/03/23 08:15:04;;;;;;;23.50;12.55;;;;;;;1.89;74.25;100075.03;4197043;28;20395;-71
2022/03/23 08:17:04;;;;;;;20.60;11.38;;;;;;;1.93;73.75;100068.75;4190188;28;20046;-71
2022/03/23 08:19:05;;;;;;;27.98;14.50;;;;;;;2.09;77.35;100071.38;4196219;28;20048;-71
2022/03/23 08:21:05;;;;;;;23.92;13.38;;;;;;;2.17;76.35;100068.88;4195826;28;20032;-72
2022/03/23 08:23:08;;;;;;;22.85;12.63;;;;;;;2.29;71.95;100071.22;4191644;28;20040;-72
2022/03/23 08:25:08;;;;;;;;;;;;;;;2.36;72.42;100060.78;4196881;28;20469;-72
2022/03/23 08:27:09;;;;;;;24.30;12.07;;;;;;;2.45;74.70;100063.72;4194422;28;20480;-72
2022/03/23 08:29:09;;;;;;;23.17;12.32;;;;;;;2.53;73.93;100065.84;4190754;28;20128;-72
2022/03/23 08:31:10;;;;;;;24.23;11.98;;;;;;;2.60;74.30;100065.53;4189991;28;20480;-72
2022/03/23 08:33:11;;;;;;;21.70;12.27;;;;;;;2.71;74.07;100054.19;4195002;28;20069;-72
2022/03/23 08:35:11;;;;;;;20.60;11.38;;;;;;;2.78;73.84;100056.59;4190634;28;20102;-72
2022/03/23 08:37:12;;;;;;;22.70;11.55;;;;;;;2.91;74.40;100057.84;4195983;28;20126;-71
2022/03/23 08:39:12;;;;;;;19.42;10.88;;;;;;;3.04;73.85;100063.44;4192521;28;20675;-72
2022/03/23 08:41:13;;;;;;;18.52;11.43;;;;;;;3.26;73.65;100064.84;4194168;28;20041;-72
2022/03/23 08:43:14;;;;;;;22.92;11.57;;;;;;;3.49;72.65;100057.75;4197493;28;20048;-71
2022/03/23 08:45:15;;;;;;;18.55;11.63;;;;;;;3.87;69.92;100059.41;4195572;28;20403;-72
2022/03/23 08:47:17;;;;;;;18.88;10.35;;;;;;;3.95;69.67;100061.50;4193854;28;20476;-71
2022/03/23 08:49:17;;;;;;;18.15;11.43;;;;;;;4.06;70.07;100053.16;4191750;28;20400;-71
2022/03/23 08:51:18;;;;;;;18.63;11.23;;;;;;;4.17;69.17;100063.66;4195639;28;20462;-71
2022/03/23 08:53:19;;;;;;;21.20;11.82;;;;;;;4.32;69.58;100054.38;4193468;28;20338;-71
2022/03/23 08:55:19;;;;;;;18.45;10.80;;;;;;;4.43;68.73;100060.50;4189438;28;20048;-71
2022/03/23 08:57:21;;;;;;;24.73;12.52;;;;;;;4.69;67.10;100050.75;4195716;28;20052;-71
2022/03/23 08:59:21;;;;;;;18.20;11.60;;;;;;;4.92;65.95;100054.44;4191099;28;20048;-71
2022/03/23 09:01:21;;;;;;;19.17;12.27;;;;;;;5.07;66.26;100058.84;4194815;28;20048;-71
2022/03/23 09:03:22;;;;;;;18.23;10.82;;;;;;;5.39;64.73;100048.91;4200317;28;20040;-71
2022/03/23 09:05:23;;;;;;;25.60;11.38;;;;;;;5.54;63.96;100054.06;4193101;28;20114;-71
2022/03/23 09:07:23;;;;;;;20.00;11.60;;;;;;;5.68;62.71;100054.06;4194766;28;20387;-71
2022/03/23 09:09:23;;;;;;;16.27;11.05;;;;;;;5.73;62.98;100054.78;4197105;28;20064;-71
2022/03/23 09:11:23;;;;;;;21.58;12.50;;;;;;;5.78;61.99;100053.81;4196556;28;20068;-71
2022/03/23 09:13:24;;;;;;;25.60;12.93;;;;;;;5.81;62.96;100050.50;4202048;28;20071;-71
2022/03/23 09:15:24;;;;;;;22.30;13.00;;;;;;;5.85;62.84;100056.97;4196744;28;20147;-71
2022/03/23 09:17:25;;;;;;;21.70;12.20;;;;;;;5.93;63.18;100049.97;4191191;28;20753;-71
2022/03/23 09:19:25;;;;;;;20.67;12.90;;;;;;;6.05;63.17;100053.81;4197223;28;20037;-71
2022/03/23 09:21:25;;;;;;;18.30;11.43;;;;;;;6.19;60.90;100053.75;4196081;28;20109;-70
2022/03/23 09:23:26;;;;;;;19.75;12.70;;;;;;;6.44;59.74;100049.59;4196982;28;20036;-70